Time;durP1;ratioP1;P1;durP2;ratioP2;P2;SDS_P1;SDS_P2;PMS_P1;PMS_P2;Temp;Humidity;BMP_temperature;BMP_pressure;BME280_temperature;BME280_humidity;BME280_pressure;Samples;Min_cycle;Max_cycle;Signal;HPM_P1;HPM_P2
2021/12/07 00:01:01;;;;;;;7.07;4.43;;;;;;;2.17;86.92;98782.67;1751613;80;21087;-55
2021/12/07 00:03:27;;;;;;;6.43;4.13;;;;;;;2.17;86.99;98785.33;1748540;80;21092;-56
2021/12/07 00:05:53;;;;;;;7.83;4.83;;;;;;;2.18;87.03;98783.95;1748817;80;21046;-56
2021/12/07 00:08:20;;;;;;;8.83;5.60;;;;;;;2.18;87.06;98769.81;1770643;79;21523;-56
2021/12/07 00:10:49;;;;;;;10.07;5.37;;;;;;;2.19;87.01;98773.75;1767393;79;22267;-55
2021/12/07 00:13:15;;;;;;;8.90;5.63;;;;;;;2.17;86.94;98774.25;1760777;79;21062;-54
2021/12/07 00:15:41;;;;;;;6.00;4.13;;;;;;;2.18;86.96;98775.12;1755204;79;21748;-56
2021/12/07 00:18:07;;;;;;;14.43;6.00;;;;;;;2.20;87.02;98775.95;1756189;79;21487;-56
2021/12/07 00:20:35;;;;;;;7.27;4.40;;;;;;;2.22;87.07;98776.30;1755716;79;21070;-55
2021/12/07 00:23:06;;;;;;;10.50;5.20;;;;;;;2.24;87.10;98781.11;1757200;79;21203;-55
2021/12/07 00:25:33;;;;;;;8.93;4.63;;;;;;;2.26;87.09;98797.87;1755087;79;20900;-55
2021/12/07 00:28:00;;;;;;;5.97;3.90;;;;;;;2.28;87.08;98792.06;1756174;79;21631;-54
2021/12/07 00:30:31;;;;;;;9.30;5.13;;;;;;;2.28;87.03;98792.06;1755916;79;21554;-55
2021/12/07 00:33:09;;;;;;;11.60;5.47;;;;;;;2.30;87.00;98798.63;1755498;79;21601;-56
2021/12/07 00:37:54;;;;;;;8.73;5.20;;;;;;;2.30;87.01;98790.66;1755400;79;21517;-56
2021/12/07 00:40:21;;;;;;;11.17;4.80;;;;;;;2.31;86.99;98787.55;1733921;79;21048;-54
2021/12/07 00:42:48;;;;;;;8.00;3.90;;;;;;;2.30;86.96;98785.84;1767935;79;20958;-54
2021/12/07 00:45:19;;;;;;;5.27;3.43;;;;;;;2.30;86.86;98788.50;1739136;80;21495;-56
2021/12/07 00:47:45;;;;;;;5.40;3.53;;;;;;;2.30;86.80;98794.64;1773431;79;22299;-55
2021/12/07 00:50:11;;;;;;;7.07;3.57;;;;;;;2.32;86.76;98794.15;1750970;80;21609;-55
2021/12/07 00:52:38;;;;;;;4.73;3.20;;;;;;;2.32;86.70;98798.13;1747553;80;21106;-55
2021/12/07 00:55:11;;;;;;;7.07;4.60;;;;;;;2.32;86.55;98779.55;1747350;80;21046;-54
2021/12/07 00:57:39;;;;;;;8.28;5.00;;;;;;;2.33;86.59;98781.74;1751416;80;21651;-54
2021/12/07 01:00:12;;;;;;;7.37;3.73;;;;;;;2.34;86.50;98792.78;1748348;80;21513;-56
2021/12/07 01:02:38;;;;;;;6.87;4.07;;;;;;;2.32;86.41;98794.60;1754229;80;22606;-55
2021/12/07 01:05:13;;;;;;;6.33;3.43;;;;;;;2.31;86.35;98784.44;1777158;79;21804;-55
2021/12/07 01:26:37;;;;;;;;;;;;;;;2.32;86.35;98786.64;1738916;81;21083;-54
2021/12/07 01:29:04;;;;;;;11.60;5.30;;;;;;;2.31;86.40;98779.13;1777168;79;20138;-54
2021/12/07 01:31:47;;;;;;;8.93;5.23;;;;;;;2.34;86.39;98787.02;1746872;79;21551;-57
2021/12/07 01:34:35;;;;;;;8.67;4.37;;;;;;;2.34;86.31;98795.44;1757083;79;20956;-55
2021/12/07 01:45:09;;;;;;;10.53;4.87;;;;;;;2.31;85.92;98796.84;1751287;80;20952;-55
2021/12/07 01:47:30;;;;;;;9.33;4.20;;;;;;;2.28;85.89;98800.03;1748983;80;20902;-57
2021/12/07 02:01:40;;;;;;;8.70;4.58;;;;;;;2.30;85.92;98775.22;1706764;81;25584;-54
2021/12/07 02:04:07;;;;;;;9.37;5.03;;;;;;;2.30;85.90;98785.84;1741472;80;21059;-56
2021/12/07 02:06:34;;;;;;;13.47;5.33;;;;;;;2.28;85.95;98793.84;1730196;80;20937;-54
2021/12/07 02:09:03;;;;;;;9.13;5.03;;;;;;;2.29;86.01;98786.30;1736180;80;21148;-55
2021/12/07 02:11:30;;;;;;;10.43;4.90;;;;;;;2.33;86.05;98793.69;1732849;80;20985;-55
2021/12/07 02:16:26;;;;;;;12.40;7.47;;;;;;;2.38;86.16;98788.67;1736978;80;21088;-55
2021/12/07 02:18:52;;;;;;;12.03;7.43;;;;;;;2.43;86.22;98797.81;1695973;82;20929;-56
2021/12/07 02:21:25;;;;;;;11.60;5.60;;;;;;;2.47;86.22;98806.08;1727460;81;21095;-54
2021/12/07 02:23:59;;;;;;;16.50;7.20;;;;;;;2.48;86.15;98803.84;1740025;80;21410;-54
2021/12/07 02:26:25;;;;;;;13.33;6.97;;;;;;;2.50;86.14;98807.33;1736716;80;21108;-55
2021/12/07 02:28:52;;;;;;;18.97;10.20;;;;;;;2.49;86.04;98813.55;1722272;81;21112;-55
2021/12/07 02:31:20;;;;;;;16.97;9.80;;;;;;;2.48;86.05;98813.14;1721124;81;21496;-55
2021/12/07 02:33:46;;;;;;;13.90;7.93;;;;;;;2.47;86.12;98802.97;1670471;83;21041;-56
2021/12/07 02:36:13;;;;;;;16.63;7.70;;;;;;;2.49;86.07;98809.57;1698063;83;21343;-55
2021/12/07 02:38:39;;;;;;;17.80;9.20;;;;;;;2.50;86.03;98812.64;1696167;82;21021;-56
2021/12/07 02:41:05;;;;;;;14.17;8.17;;;;;;;2.51;86.01;98803.76;1696948;82;21488;-55
2021/12/07 02:43:32;;;;;;;14.13;8.67;;;;;;;2.54;86.05;98795.70;1714334;81;21120;-55
2021/12/07 02:45:58;;;;;;;15.80;8.33;;;;;;;2.56;86.09;98797.83;1699846;82;21105;-55
2021/12/07 02:48:25;;;;;;;19.97;9.50;;;;;;;2.57;86.12;98801.78;1704818;82;21073;-55
2021/12/07 02:50:52;;;;;;;17.00;9.13;;;;;;;2.58;86.07;98802.64;1699517;82;21492;-55
2021/12/07 02:53:22;;;;;;;20.13;10.47;;;;;;;2.58;86.03;98798.20;1684799;83;21155;-55
2021/12/07 02:55:49;;;;;;;19.07;10.77;;;;;;;2.59;86.07;98800.41;1746907;80;21656;-55
2021/12/07 02:58:17;;;;;;;22.97;10.57;;;;;;;2.59;86.05;98807.05;1743107;80;21178;-55
2021/12/07 03:00:52;;;;;;;20.37;10.67;;;;;;;2.58;86.00;98803.97;1734723;81;21516;-55
2021/12/07 03:03:15;;;;;;;19.73;10.67;;;;;;;2.58;85.96;98803.97;1739155;80;21115;-55
2021/12/07 03:08:55;;;;;;;15.13;7.80;;;;;;;2.59;85.93;98793.30;1741088;81;21105;-55
2021/12/07 03:27:23;;;;;;;25.10;12.30;;;;;;;2.57;85.83;98804.89;1734988;80;21467;-55
2021/12/07 03:29:50;;;;;;;19.30;10.80;;;;;;;2.53;85.75;98797.49;1739376;80;21116;-55
2021/12/07 03:32:17;;;;;;;18.17;10.23;;;;;;;2.52;85.76;98808.16;1734167;81;21122;-55
2021/12/07 03:34:45;;;;;;;19.43;11.13;;;;;;;2.51;85.72;98807.74;1727865;80;21478;-55
2021/12/07 03:37:11;;;;;;;19.00;10.37;;;;;;;2.50;85.72;98802.02;1741202;81;21771;-55
2021/12/07 03:39:38;;;;;;;21.53;10.10;;;;;;;2.53;85.80;98813.89;1736648;81;21081;-55
2021/12/07 03:42:04;;;;;;;19.30;10.47;;;;;;;2.53;85.78;98813.89;1733881;80;21099;-55
2021/12/07 03:44:33;;;;;;;15.93;10.03;;;;;;;2.55;85.73;98812.06;1707481;80;21871;-55
2021/12/07 03:47:00;;;;;;;18.93;9.87;;;;;;;2.56;85.82;98817.76;1740346;80;21100;-55
2021/12/07 03:49:26;;;;;;;19.13;10.93;;;;;;;2.59;85.78;98829.63;1728938;81;22652;-55
2021/12/07 03:51:53;;;;;;;15.17;9.03;;;;;;;2.57;85.74;98825.69;1732432;81;21591;-55
2021/12/07 03:54:21;;;;;;;16.90;9.50;;;;;;;2.57;85.72;98836.77;1722352;81;21591;-55
2021/12/07 03:56:48;;;;;;;23.13;12.20;;;;;;;2.57;85.75;98837.64;1726314;80;21569;-55
2021/12/07 03:59:14;;;;;;;20.77;12.53;;;;;;;2.56;85.73;98841.20;1733025;80;22295;-55
2021/12/07 04:01:41;;;;;;;27.00;14.83;;;;;;;2.55;85.72;98838.62;1728919;80;22508;-55
2021/12/07 04:04:10;;;;;;;18.77;11.27;;;;;;;2.56;85.65;98844.32;1729621;80;21075;-55
2021/12/07 04:06:36;;;;;;;21.03;11.70;;;;;;;2.56;85.64;98842.54;1732424;81;21074;-55
2021/12/07 04:09:04;;;;;;;21.93;11.50;;;;;;;2.58;85.67;98851.80;1729801;80;21039;-55
2021/12/07 04:11:32;;;;;;;18.80;9.90;;;;;;;2.59;85.64;98845.57;1727683;80;21163;-55
2021/12/07 04:13:58;;;;;;;18.97;11.20;;;;;;;2.60;85.74;98840.21;1728732;81;21819;-55
2021/12/07 04:16:26;;;;;;;18.13;10.80;;;;;;;2.62;85.64;98850.80;1709392;82;21539;-55
2021/12/07 04:18:54;;;;;;;17.43;10.37;;;;;;;;;;1731106;80;21084;-55
2021/12/07 04:21:21;;;;;;;18.10;11.00;;;;;;;2.64;85.64;98833.88;1728090;81;21124;-55
2021/12/07 04:23:47;;;;;;;21.57;13.17;;;;;;;2.63;85.51;98827.30;1726920;80;21052;-55
2021/12/07 04:26:14;;;;;;;21.03;12.33;;;;;;;2.62;85.44;98825.56;1728568;80;21118;-55
2021/12/07 04:28:41;;;;;;;18.03;10.77;;;;;;;2.59;85.45;98837.14;1728522;80;22253;-55
2021/12/07 04:31:08;;;;;;;15.77;9.20;;;;;;;2.59;85.37;98844.24;1737172;81;21009;-55
2021/12/07 04:33:34;;;;;;;16.27;9.93;;;;;;;2.58;85.39;98845.16;1730101;81;21539;-55
2021/12/07 04:36:02;;;;;;;16.93;9.23;;;;;;;2.59;85.34;98854.87;1731112;80;20946;-55
2021/12/07 04:38:28;;;;;;;15.47;9.10;;;;;;;2.57;85.30;98846.06;1733333;81;21793;-55
2021/12/07 04:40:55;;;;;;;12.37;7.87;;;;;;;2.56;85.38;98852.30;1731774;80;20958;-55
2021/12/07 04:43:21;;;;;;;12.77;7.73;;;;;;;2.60;85.43;98856.16;1731040;80;20927;-55
2021/12/07 04:59:15;;;;;;;18.87;10.00;;;;;;;2.55;85.28;98872.67;1731791;81;20154;-55
2021/12/07 05:01:42;;;;;;;13.43;8.30;;;;;;;2.52;85.24;98869.26;1731902;80;21081;-55
2021/12/07 05:04:14;;;;;;;15.03;8.50;;;;;;;2.49;85.21;98865.35;1728627;80;21541;-55
2021/12/07 05:06:45;;;;;;;9.40;6.60;;;;;;;2.47;85.20;98877.34;1729053;81;21021;-55
2021/12/07 05:09:27;;;;;;;12.07;7.07;;;;;;;2.46;85.23;98878.30;1728182;81;21086;-55
2021/12/07 05:11:50;;;;;;;12.87;7.60;;;;;;;2.47;85.27;98876.47;1689348;82;21121;-55
2021/12/07 05:14:17;;;;;;;10.13;6.03;;;;;;;2.48;85.36;98880.87;1731775;81;21043;-55
2021/12/07 05:23:54;;;;;;;10.43;6.37;;;;;;;2.52;85.35;98862.62;1727433;81;21075;-55
2021/12/07 05:24:27;;;;;;;13.98;7.80;;;;;;;2.55;85.33;98862.53;1686379;83;21927;-55
2021/12/07 05:40:11;;;;;;;13.13;6.73;;;;;;;2.42;85.13;98897.00;1734236;81;20971;-55
2021/12/07 05:42:40;;;;;;;9.00;6.07;;;;;;;2.42;85.15;98891.69;1733696;81;21094;-55
2021/12/07 05:45:10;;;;;;;10.43;6.43;;;;;;;2.44;85.18;98900.48;1729699;81;21653;-55
2021/12/07 05:47:37;;;;;;;11.67;7.67;;;;;;;2.44;85.20;98888.08;1727675;81;22220;-55
2021/12/07 05:50:05;;;;;;;11.50;6.37;;;;;;;2.46;85.26;98886.72;1728892;81;22171;-54
2021/12/07 05:52:32;;;;;;;7.97;5.93;;;;;;;2.46;85.26;98876.96;1731308;81;21262;-54
2021/12/07 05:54:58;;;;;;;14.03;7.03;;;;;;;2.50;85.26;98868.42;1724753;81;21122;-55
2021/12/07 05:57:25;;;;;;;11.23;7.50;;;;;;;2.49;85.12;98853.40;1729065;81;21052;-54
2021/12/07 05:59:51;;;;;;;14.13;7.07;;;;;;;2.44;85.01;98848.23;1731002;81;21525;-55
2021/12/07 06:02:18;;;;;;;8.60;5.07;;;;;;;2.38;84.89;98845.78;1730942;81;21048;-55
2021/12/07 06:04:44;;;;;;;10.97;4.93;;;;;;;2.34;84.89;98857.84;1729188;81;21038;-55
2021/12/07 06:07:11;;;;;;;9.63;5.23;;;;;;;2.33;85.08;98859.63;1729473;81;21143;-55
2021/12/07 06:09:37;;;;;;;8.53;5.40;;;;;;;2.34;85.17;98856.06;1733283;81;21086;-55
2021/12/07 06:12:04;;;;;;;9.73;7.37;;;;;;;2.36;85.20;98856.89;1730234;81;21112;-55
2021/12/07 06:14:42;;;;;;;9.23;5.77;;;;;;;2.39;85.17;98873.17;1740472;80;21039;-55
2021/12/07 06:17:00;;;;;;;10.57;6.67;;;;;;;2.40;85.20;98877.58;1726845;81;21102;-55
2021/12/07 06:19:27;;;;;;;13.23;6.50;;;;;;;2.40;85.16;98876.25;1729827;80;21518;-55
2021/12/07 06:21:54;;;;;;;10.80;6.60;;;;;;;2.39;85.09;98881.14;1727843;81;21061;-55
2021/12/07 06:24:20;;;;;;;10.47;6.80;;;;;;;2.35;85.01;98876.39;1735848;81;21077;-55
2021/12/07 06:26:46;;;;;;;12.70;7.10;;;;;;;2.32;84.93;98880.45;1729842;80;21059;-55
2021/12/07 06:29:13;;;;;;;10.43;5.87;;;;;;;2.32;84.89;98878.25;1731340;80;21124;-55
2021/12/07 06:31:41;;;;;;;9.87;6.10;;;;;;;2.30;84.89;98885.42;1733431;81;21031;-55
2021/12/07 06:34:10;;;;;;;8.30;5.80;;;;;;;2.29;84.89;98889.86;1732098;81;21097;-55
2021/12/07 06:36:39;;;;;;;7.40;5.27;;;;;;;2.31;84.92;98888.01;1732172;80;21043;-55
2021/12/07 06:39:06;;;;;;;9.70;6.30;;;;;;;2.31;84.97;98888.01;1731037;80;21101;-55
2021/12/07 06:41:33;;;;;;;10.17;6.10;;;;;;;2.33;85.06;98888.84;1730584;80;21038;-55
2021/12/07 06:43:59;;;;;;;7.60;6.20;;;;;;;2.34;85.00;98893.70;1729786;80;21544;-55
2021/12/07 06:46:25;;;;;;;11.13;5.50;;;;;;;2.33;84.94;98887.52;1729397;80;21587;-55
2021/12/07 06:48:52;;;;;;;14.77;5.97;;;;;;;2.32;84.87;98884.89;1728820;81;21035;-55
2021/12/07 06:51:18;;;;;;;9.90;6.33;;;;;;;2.31;84.88;98893.31;1725347;81;21101;-55
2021/12/07 06:53:44;;;;;;;6.77;5.00;;;;;;;2.31;84.91;98899.95;1708291;81;21090;-55
2021/12/07 06:56:11;;;;;;;8.10;5.33;;;;;;;2.31;84.93;98903.94;1709265;81;21493;-55
2021/12/07 06:58:37;;;;;;;10.27;6.60;;;;;;;2.33;84.93;98906.55;1712068;81;22619;-55
2021/12/07 07:01:06;;;;;;;10.10;5.50;;;;;;;2.36;85.08;98902.05;1708419;81;21088;-55
2021/12/07 07:03:34;;;;;;;11.90;6.97;;;;;;;2.39;85.07;98905.91;1711930;81;21366;-55
2021/12/07 07:06:01;;;;;;;12.03;7.60;;;;;;;2.43;85.02;98904.06;1683494;83;20883;-55
2021/12/07 07:08:28;;;;;;;12.90;8.20;;;;;;;2.44;84.92;98901.81;1684987;83;21117;-55
2021/12/07 07:10:55;;;;;;;12.97;6.87;;;;;;;2.41;84.86;98901.44;1715112;81;21065;-55
2021/12/07 07:13:21;;;;;;;11.43;5.97;;;;;;;2.40;84.81;98908.12;1714846;81;22756;-55
2021/12/07 07:15:48;;;;;;;10.17;5.93;;;;;;;2.38;84.79;98913.50;1713152;81;21363;-55
2021/12/07 07:18:16;;;;;;;14.63;6.13;;;;;;;2.37;84.85;98914.41;1716299;81;20974;-55
2021/12/07 07:20:42;;;;;;;8.40;5.80;;;;;;;2.39;84.94;98917.00;1710631;81;21605;-55
2021/12/07 07:23:08;;;;;;;9.50;6.47;;;;;;;2.38;84.90;98928.11;1716174;82;21422;-55
2021/12/07 07:25:35;;;;;;;9.80;6.40;;;;;;;2.38;84.84;98932.09;1712752;81;21670;-55
2021/12/07 07:28:02;;;;;;;10.83;7.40;;;;;;;2.39;84.90;98936.45;1710831;81;21123;-56
2021/12/07 07:30:29;;;;;;;15.20;7.93;;;;;;;2.39;84.87;98940.90;1712527;81;21102;-55
2021/12/07 07:32:55;;;;;;;11.43;7.77;;;;;;;2.35;84.86;98936.61;1712089;81;22729;-55
2021/12/07 07:35:22;;;;;;;10.87;7.20;;;;;;;2.35;84.88;98940.13;1712622;81;21070;-55
2021/12/07 07:37:48;;;;;;;10.90;6.43;;;;;;;2.33;84.82;98941.95;1725488;81;22134;-55
2021/12/07 07:40:17;;;;;;;10.30;7.20;;;;;;;2.30;84.75;98951.33;1714139;81;20898;-55
2021/12/07 07:42:44;;;;;;;9.23;5.80;;;;;;;2.31;84.83;98948.21;1717941;81;20971;-55
2021/12/07 07:45:24;;;;;;;10.37;7.17;;;;;;;2.31;84.93;98940.25;1713656;81;21071;-55
2021/12/07 07:47:51;;;;;;;12.10;8.03;;;;;;;2.33;84.89;98945.06;1711657;81;21373;-55
2021/12/07 07:50:18;;;;;;;13.03;6.80;;;;;;;2.28;84.67;98943.88;1714144;81;21084;-55
2021/12/07 07:52:45;;;;;;;10.87;7.17;;;;;;;2.21;84.72;98943.16;1727736;81;20876;-55
2021/12/07 07:55:12;;;;;;;13.80;8.20;;;;;;;2.16;84.82;98951.72;1727745;80;20923;-55
2021/12/07 07:57:38;;;;;;;12.83;8.70;;;;;;;2.14;84.92;98955.31;1733309;80;21811;-55
2021/12/07 08:00:08;;;;;;;12.20;6.90;;;;;;;2.13;85.03;98958.42;1732589;80;21002;-55
2021/12/07 08:02:36;;;;;;;12.63;7.67;;;;;;;2.15;85.03;98954.41;1729728;81;20918;-55
2021/12/07 08:05:04;;;;;;;16.00;8.07;;;;;;;2.16;85.08;98953.04;1726317;80;21163;-55
2021/12/07 08:07:31;;;;;;;12.90;7.00;;;;;;;2.17;85.06;98941.97;1730530;81;21128;-55
2021/12/07 08:09:57;;;;;;;10.60;6.40;;;;;;;2.13;84.97;98939.84;1727961;80;22901;-55
2021/12/07 08:12:23;;;;;;;10.37;6.00;;;;;;;2.13;85.07;98932.33;1732761;80;21158;-54
2021/12/07 08:14:50;;;;;;;8.13;5.77;;;;;;;2.08;84.99;98937.78;1731169;80;21059;-55
2021/12/07 08:17:16;;;;;;;8.73;6.20;;;;;;;2.02;85.07;98943.72;1674462;83;21093;-55
2021/12/07 08:19:43;;;;;;;8.73;5.70;;;;;;;1.99;85.18;98935.37;1698473;83;21078;-55
2021/12/07 08:22:09;;;;;;;8.37;5.47;;;;;;;1.95;85.22;98935.05;1734343;80;21659;-55
2021/12/07 08:24:36;;;;;;;5.20;4.03;;;;;;;1.96;85.33;98942.56;1729880;80;21251;-55
2021/12/07 08:27:03;;;;;;;5.83;3.73;;;;;;;1.97;85.34;98942.95;1731464;81;22174;-55
2021/12/07 08:29:30;;;;;;;6.87;4.67;;;;;;;2.00;85.39;98944.20;1727562;81;22753;-55
2021/12/07 08:31:56;;;;;;;5.63;4.30;;;;;;;2.02;85.40;98956.53;1728286;81;21073;-55
2021/12/07 08:34:22;;;;;;;5.27;4.20;;;;;;;2.04;85.42;98950.70;1725329;81;21111;-55
2021/12/07 08:36:49;;;;;;;5.27;4.43;;;;;;;2.08;85.47;98948.39;1729477;81;21101;-54
2021/12/07 08:39:15;;;;;;;9.90;5.70;;;;;;;2.14;85.58;98947.34;1733655;81;21034;-55
2021/12/07 08:41:42;;;;;;;6.67;5.77;;;;;;;2.21;85.53;98951.61;1730073;81;21046;-55
2021/12/07 08:44:08;;;;;;;8.47;5.70;;;;;;;2.23;85.29;98951.95;1727870;81;21087;-55
2021/12/07 08:46:35;;;;;;;7.50;5.33;;;;;;;2.23;85.22;98955.94;1729823;81;22002;-55
2021/12/07 08:49:03;;;;;;;7.03;5.53;;;;;;;2.22;85.16;98951.99;1730073;80;21033;-55
2021/12/07 08:51:29;;;;;;;7.87;5.50;;;;;;;2.20;85.03;98951.19;1734083;81;21105;-55
2021/12/07 08:54:16;;;;;;;6.50;5.13;;;;;;;2.17;85.04;98949.48;1735756;80;21035;-55
2021/12/07 09:01:56;;;;;;;;;;;;;;;2.21;85.03;98940.50;1735394;81;21051;-55
2021/12/07 09:04:22;;;;;;;8.73;5.00;;;;;;;2.18;84.87;98934.42;1737424;81;20479;-56
2021/12/07 09:06:49;;;;;;;10.40;5.93;;;;;;;2.13;85.00;98936.31;1742331;80;21973;-55
2021/12/07 09:09:16;;;;;;;10.47;6.23;;;;;;;2.13;85.14;98929.22;1740373;80;21113;-56
2021/12/07 09:11:42;;;;;;;11.77;6.40;;;;;;;2.13;85.06;98933.66;1738036;80;21116;-55
2021/12/07 09:14:13;;;;;;;8.03;5.13;;;;;;;2.10;85.01;98933.30;1738133;80;21315;-55
2021/12/07 09:16:39;;;;;;;7.40;5.43;;;;;;;2.09;84.99;98926.70;1741342;80;20941;-55
2021/12/07 09:19:06;;;;;;;9.23;4.33;;;;;;;2.09;84.97;98919.61;1739839;81;22027;-55
2021/12/07 09:21:33;;;;;;;7.77;3.87;;;;;;;2.09;85.08;98918.73;1740635;80;21511;-55
2021/12/07 09:23:59;;;;;;;8.40;5.73;;;;;;;2.12;85.09;98908.92;1740352;81;21430;-54
2021/12/07 09:26:26;;;;;;;8.00;5.13;;;;;;;2.13;84.95;98911.09;1740820;80;22494;-56
2021/12/07 09:28:52;;;;;;;11.23;5.43;;;;;;;2.11;85.00;98907.62;1746530;80;21510;-55
2021/12/07 09:31:18;;;;;;;9.27;5.67;;;;;;;2.10;85.02;98904.10;1737449;80;21096;-54
2021/12/07 09:33:45;;;;;;;9.97;5.30;;;;;;;2.07;84.98;98909.94;1739005;80;21070;-55
2021/12/07 09:36:12;;;;;;;10.53;5.37;;;;;;;2.04;84.96;98910.05;1740304;80;22612;-55
2021/12/07 09:38:39;;;;;;;6.53;4.00;;;;;;;2.01;84.97;98916.30;1734362;81;21063;-56
2021/12/07 09:41:06;;;;;;;7.10;3.47;;;;;;;2.01;85.16;98904.36;1736162;81;21435;-55
2021/12/07 09:43:33;;;;;;;7.80;4.00;;;;;;;2.02;85.21;98898.14;1740988;80;20955;-55
2021/12/07 09:45:59;;;;;;;7.90;3.50;;;;;;;2.05;85.30;98901.14;1680978;83;21024;-55
2021/12/07 09:48:26;;;;;;;4.60;3.20;;;;;;;2.06;85.28;98894.47;1685769;83;21059;-54
2021/12/07 09:50:53;;;;;;;7.17;4.50;;;;;;;2.09;85.34;98898.83;1681630;83;21085;-55
2021/12/07 09:53:20;;;;;;;5.13;4.27;;;;;;;2.06;85.15;98898.45;1728308;81;21062;-55
2021/12/07 09:55:47;;;;;;;6.37;4.77;;;;;;;2.02;85.23;98893.28;1734655;81;21078;-55
2021/12/07 09:58:14;;;;;;;7.10;4.00;;;;;;;1.99;85.24;98892.90;1734031;81;21583;-55
2021/12/07 10:00:40;;;;;;;8.50;4.83;;;;;;;1.99;85.36;98894.23;1726475;81;21535;-55
2021/12/07 10:03:07;;;;;;;11.07;5.53;;;;;;;1.99;85.36;98894.68;1727057;81;21542;-55
2021/12/07 10:05:35;;;;;;;7.37;4.27;;;;;;;1.96;85.51;98890.31;1722871;81;22252;-54
2021/12/07 10:08:03;;;;;;;7.53;4.17;;;;;;;2.00;85.65;98895.09;1734634;81;21100;-55
2021/12/07 10:10:34;;;;;;;10.57;4.27;;;;;;;2.03;85.67;98888.39;1729916;81;21105;-55
2021/12/07 10:13:01;;;;;;;8.13;4.60;;;;;;;2.02;85.57;98894.16;1727806;80;21036;-55
2021/12/07 10:15:29;;;;;;;11.57;5.97;;;;;;;1.98;85.60;98892.48;1729378;81;21080;-54
2021/12/07 10:18:03;;;;;;;8.17;5.00;;;;;;;1.97;85.68;98901.35;1735820;81;21094;-54
2021/12/07 10:20:39;;;;;;;7.75;4.05;;;;;;;;;;1738671;81;21067;-55
2021/12/07 10:23:19;;;;;;;10.17;5.33;;;;;;;1.85;85.78;98889.77;1734288;81;21018;-55
2021/12/07 10:25:51;;;;;;;9.60;4.50;;;;;;;1.83;85.91;98888.92;1730787;81;21154;-55
2021/12/07 10:28:33;;;;;;;7.70;3.53;;;;;;;1.79;86.11;98882.81;1736503;81;20908;-54
2021/12/07 10:31:28;;;;;;;9.93;4.43;;;;;;;1.77;86.20;98880.69;1734712;81;21323;-55
2021/12/07 10:34:00;;;;;;;7.62;4.03;;;;;;;1.77;86.32;98879.36;1734215;81;21386;-55
2021/12/07 10:36:34;;;;;;;6.40;3.43;;;;;;;1.78;86.41;98874.47;1734386;81;20939;-54
2021/12/07 10:39:04;;;;;;;;;;;;;;;1.80;86.54;98874.41;1736783;80;21772;-56
2021/12/07 10:41:36;;;;;;;6.97;3.67;;;;;;;1.80;86.47;98873.08;1728480;80;20123;-54
2021/12/07 10:44:10;;;;;;;6.50;3.30;;;;;;;1.76;86.45;98879.39;1730501;82;20884;-55
2021/12/07 10:46:51;;;;;;;5.03;3.67;;;;;;;1.74;86.64;98887.84;1736806;81;21504;-54
2021/12/07 10:49:32;;;;;;;3.90;2.23;;;;;;;1.72;86.70;98890.98;1705641;81;21018;-55
2021/12/07 10:52:17;;;;;;;4.53;2.27;;;;;;;1.70;86.68;98892.83;1738231;81;21826;-55
2021/12/07 10:55:15;;;;;;;3.87;2.00;;;;;;;1.68;86.72;98899.49;1700581;83;21536;-55
2021/12/07 10:57:47;;;;;;;5.33;2.53;;;;;;;1.67;86.90;98908.81;1735736;81;21023;-56
2021/12/07 11:00:30;;;;;;;3.70;2.10;;;;;;;1.70;86.96;98915.38;1725961;81;21241;-56
2021/12/07 11:03:15;;;;;;;5.70;3.20;;;;;;;1.70;87.01;98922.01;1735034;81;21288;-56
2021/12/07 11:05:51;;;;;;;6.80;3.20;;;;;;;1.75;87.07;98920.09;1702063;83;21495;-55
2021/12/07 11:08:19;;;;;;;8.50;4.17;;;;;;;1.77;87.04;98928.44;1668326;83;21031;-56
2021/12/07 11:10:49;;;;;;;10.83;5.70;;;;;;;1.79;86.97;98915.11;1735511;81;20922;-55
2021/12/07 11:13:24;;;;;;;15.90;7.87;;;;;;;1.77;86.84;98915.62;1736110;81;20972;-56
2021/12/07 11:15:55;;;;;;;15.37;5.93;;;;;;;1.74;86.78;98903.76;1730115;80;21056;-55
2021/12/07 11:18:33;;;;;;;8.83;4.77;;;;;;;1.70;86.77;98893.67;1727255;80;21104;-55
2021/12/07 11:21:08;;;;;;;3.20;2.07;;;;;;;1.67;86.81;98891.57;1732020;81;21006;-55
2021/12/07 11:23:42;;;;;;;1.80;1.30;;;;;;;1.66;86.97;98892.02;1734606;81;20963;-56
2021/12/07 11:31:50;;;;;;;2.53;1.57;;;;;;;1.74;87.09;98882.53;1730983;81;21163;-56
2021/12/07 11:34:29;;;;;;;3.47;1.83;;;;;;;1.76;87.09;98890.00;1692051;83;22075;-59
2021/12/07 11:37:05;;;;;;;1.60;1.43;;;;;;;1.74;87.01;98888.71;1733825;80;20999;-56
2021/12/07 11:39:36;;;;;;;3.93;1.10;;;;;;;1.72;86.90;98890.53;1730227;81;21037;-56
2021/12/07 11:42:07;;;;;;;2.73;1.40;;;;;;;1.67;86.86;98888.92;1729401;81;21116;-56
2021/12/07 11:44:51;;;;;;;1.63;1.37;;;;;;;1.65;86.98;98884.10;1732779;80;21197;-56
2021/12/07 11:47:29;;;;;;;2.63;1.10;;;;;;;1.65;87.04;98886.30;1729529;81;21992;-56
2021/12/07 11:49:58;;;;;;;1.23;1.00;;;;;;;1.66;87.05;98881.87;1725751;81;21084;-56
2021/12/07 11:52:24;;;;;;;1.20;0.80;;;;;;;1.69;87.08;98881.80;1729745;80;21059;-56
2021/12/07 11:54:50;;;;;;;1.70;1.23;;;;;;;1.68;86.95;98882.70;1729706;80;21066;-56
2021/12/07 11:57:18;;;;;;;3.83;2.53;;;;;;;1.66;86.96;98884.06;1730476;81;21418;-55
2021/12/07 11:59:47;;;;;;;4.27;2.90;;;;;;;1.67;87.07;98895.55;1732961;81;21665;-56
2021/12/07 12:02:14;;;;;;;7.93;4.33;;;;;;;1.67;86.93;98891.57;1732432;80;20967;-55
2021/12/07 12:04:42;;;;;;;11.27;6.50;;;;;;;1.68;86.92;98891.53;1730599;81;21113;-56
2021/12/07 12:07:08;;;;;;;8.30;5.40;;;;;;;1.66;86.74;98892.48;1728046;80;21300;-56
2021/12/07 12:09:51;;;;;;;4.87;3.43;;;;;;;1.62;86.63;98900.08;1734103;80;21025;-56
2021/12/07 12:12:34;;;;;;;4.67;2.77;;;;;;;1.59;86.71;98910.80;1733725;80;21057;-56
2021/12/07 12:15:24;;;;;;;4.00;1.60;;;;;;;1.58;86.77;98920.53;1734787;80;21556;-55
2021/12/07 12:18:12;;;;;;;2.37;1.20;;;;;;;1.56;86.74;98919.69;1730393;81;21053;-55
2021/12/07 12:21:17;;;;;;;3.20;1.77;;;;;;;1.53;86.77;98926.42;1730804;81;21038;-56
2021/12/07 12:24:01;;;;;;;4.33;1.70;;;;;;;1.54;86.74;98926.81;1729400;82;21139;-56
2021/12/07 12:26:27;;;;;;;3.12;1.15;;;;;;;1.55;86.72;98919.72;1732893;81;21130;-56
2021/12/07 12:28:54;;;;;;;2.10;1.00;;;;;;;1.54;86.80;98913.55;1734151;80;21117;-55
2021/12/07 12:31:51;;;;;;;1.97;1.17;;;;;;;1.56;86.83;98909.53;1735677;80;21151;-55
2021/12/07 12:34:21;;;;;;;4.63;1.40;;;;;;;1.58;86.88;98898.44;1674518;83;21081;-55
2021/12/07 12:37:13;;;;;;;4.47;1.10;;;;;;;1.58;86.69;98903.29;1731815;80;21190;-55
2021/12/07 12:39:59;;;;;;;2.67;1.20;;;;;;;1.55;86.75;98907.34;1732971;81;20931;-55
2021/12/07 12:42:46;;;;;;;2.43;1.00;;;;;;;1.50;86.75;98907.47;1737488;81;21000;-55
2021/12/07 12:45:27;;;;;;;1.80;0.83;;;;;;;1.48;86.76;98905.30;1730572;81;21113;-56
2021/12/07 12:48:09;;;;;;;2.80;0.90;;;;;;;1.44;86.74;98906.30;1734394;80;21015;-56
2021/12/07 12:50:46;;;;;;;2.80;1.00;;;;;;;1.40;86.84;98903.30;1728378;80;21729;-55
2021/12/07 12:53:17;;;;;;;1.87;0.83;;;;;;;1.38;86.90;98904.23;1733272;81;21078;-56
2021/12/07 12:55:57;;;;;;;0.90;0.80;;;;;;;1.38;86.98;98898.48;1677544;83;21082;-55
2021/12/07 12:58:36;;;;;;;2.13;1.27;;;;;;;1.39;86.96;98888.75;1734717;81;21367;-55
2021/12/07 13:01:20;;;;;;;3.50;1.10;;;;;;;1.39;87.04;98890.07;1737490;81;21078;-55
2021/12/07 13:04:13;;;;;;;2.90;1.30;;;;;;;1.36;86.96;98888.84;1742263;81;21101;-55
2021/12/07 13:07:45;;;;;;;1.20;0.80;;;;;;;1.32;86.91;98881.86;1739648;80;21529;-55
2021/12/07 13:09:43;;;;;;;2.63;0.90;;;;;;;1.28;86.96;98891.66;1720069;80;21097;-55
2021/12/07 13:12:16;;;;;;;1.30;0.90;;;;;;;1.26;87.02;98889.98;1739886;81;21444;-54
2021/12/07 13:14:51;;;;;;;1.93;0.90;;;;;;;1.23;86.88;98893.56;1744671;81;21075;-55
2021/12/07 13:17:27;;;;;;;2.70;1.10;;;;;;;1.23;87.05;98901.52;1733380;81;21082;-55
2021/12/07 13:20:11;;;;;;;3.50;0.95;;;;;;;1.27;87.02;98890.39;1738988;80;28815;-55
2021/12/07 13:22:58;;;;;;;2.30;1.33;;;;;;;1.25;86.85;98902.81;1737566;81;21053;-56
2021/12/07 13:25:46;;;;;;;2.80;1.13;;;;;;;1.21;86.83;98897.15;1717439;81;21029;-55
2021/12/07 13:28:31;;;;;;;2.30;0.90;;;;;;;1.18;86.86;98902.09;1741129;80;21498;-56
2021/12/07 13:31:17;;;;;;;3.15;1.00;;;;;;;1.16;86.85;98895.08;1736670;81;21295;-55
2021/12/07 13:33:53;;;;;;;3.00;1.20;;;;;;;1.15;86.92;98899.50;1706607;83;21117;-56
2021/12/07 13:36:56;;;;;;;2.60;1.53;;;;;;;1.11;86.89;98896.49;1737589;81;21060;-56
2021/12/07 13:39:30;;;;;;;3.50;1.90;;;;;;;1.11;86.99;98907.09;1745193;80;20935;-56